createdAt,value
2022-09-29T00:00:37.739Z,536.25
2022-09-29T00:03:06.153Z,547.58
2022-09-29T00:05:34.199Z,575.67
2022-09-29T00:08:02.566Z,576.28
2022-09-29T00:10:30.529Z,582.70
2022-09-29T00:12:59.838Z,602.97
2022-09-29T00:15:27.805Z,595.95
2022-09-29T00:18:13.114Z,600.70
2022-09-29T00:20:41.932Z,599.90
2022-09-29T00:23:10.120Z,605.70
2022-09-29T00:25:37.951Z,598.78
2022-09-29T00:28:07.540Z,596.38
2022-09-29T00:30:35.357Z,554.35
2022-09-29T00:33:03.192Z,530.60
2022-09-29T00:35:31.076Z,542.10
2022-09-29T00:37:59.208Z,502.95
2022-09-29T00:40:27.045Z,503.58
2022-09-29T00:42:55.417Z,508.60
2022-09-29T00:45:25.284Z,536.35
2022-09-29T00:47:59.253Z,571.88
2022-09-29T00:50:29.714Z,575.40
2022-09-29T00:53:00.924Z,586.83
2022-09-29T00:55:31.910Z,544.20
2022-09-29T00:58:03.256Z,481.30
2022-09-29T01:00:32.577Z,549.92
2022-09-29T01:03:03.865Z,496.38
2022-09-29T01:05:33.992Z,432.25
2022-09-29T01:08:06.488Z,553.70
2022-09-29T01:10:35.758Z,460.17
2022-09-29T01:13:04.052Z,501.20
2022-09-29T01:15:34.605Z,511.45
2022-09-29T01:18:02.788Z,577.75
2022-09-29T01:20:33.921Z,569.85
2022-09-29T01:23:35.576Z,587.35
2022-09-29T01:26:40.098Z,590.55
2022-09-29T01:29:34.465Z,563.35
2022-09-29T01:32:10.669Z,601.90
2022-09-29T01:34:42.961Z,593.38
2022-09-29T01:37:15.833Z,588.60
2022-09-29T01:39:49.103Z,597.28
2022-09-29T01:42:19.252Z,588.38
2022-09-29T01:44:50.155Z,547.20
2022-09-29T01:47:22.433Z,590.20
2022-09-29T01:49:55.113Z,599.05
2022-09-29T01:52:25.600Z,579.20
2022-09-29T01:54:56.744Z,606.33
2022-09-29T01:57:29.034Z,583.55
2022-09-29T02:00:04.034Z,546.83
2022-09-29T02:02:37.543Z,570.83
2022-09-29T02:05:10.724Z,525.50
2022-09-29T02:07:40.413Z,544.00
2022-09-29T02:10:12.286Z,529.65
2022-09-29T02:12:40.426Z,540.08
2022-09-29T02:15:11.145Z,492.40
2022-09-29T02:17:42.860Z,507.08
2022-09-29T02:20:11.866Z,570.28
2022-09-29T02:22:41.110Z,560.15
2022-09-29T02:25:11.565Z,554.40
2022-09-29T02:27:40.266Z,488.42
2022-09-29T02:30:09.660Z,359.92
2022-09-29T02:32:38.835Z,333.52
2022-09-29T02:35:11.815Z,382.77
2022-09-29T02:37:55.770Z,438.70
2022-09-29T02:40:39.085Z,408.58
2022-09-29T02:43:41.327Z,469.40
2022-09-29T02:46:20.825Z,584.63
2022-09-29T02:49:07.550Z,503.38
2022-09-29T02:51:39.089Z,458.83
2022-09-29T02:54:21.140Z,509.85
2022-09-29T02:56:55.442Z,522.22
2022-09-29T02:59:27.487Z,456.95
2022-09-29T03:01:57.259Z,458.85
2022-09-29T03:04:28.281Z,466.15
2022-09-29T03:06:57.893Z,442.42
2022-09-29T03:09:25.839Z,428.83
2022-09-29T03:11:53.954Z,436.27
2022-09-29T03:14:22.003Z,474.45
2022-09-29T03:16:50.001Z,518.28
2022-09-29T03:19:17.861Z,460.85
2022-09-29T03:21:45.754Z,481.58
2022-09-29T03:24:15.304Z,529.55
2022-09-29T03:26:43.120Z,550.47
2022-09-29T03:29:10.969Z,503.73
2022-09-29T03:31:40.800Z,504.33
2022-09-29T03:34:08.695Z,532.15
2022-09-29T03:36:36.567Z,525.60
2022-09-29T03:39:04.659Z,527.88
2022-09-29T03:41:34.398Z,474.88
2022-09-29T03:44:02.343Z,494.05
2022-09-29T03:46:30.174Z,483.52
2022-09-29T03:48:58.064Z,427.58
2022-09-29T03:51:26.705Z,401.55
2022-09-29T03:53:55.543Z,427.13
2022-09-29T03:56:23.477Z,401.63
2022-09-29T03:58:52.940Z,412.05
2022-09-29T04:01:21.150Z,419.42
2022-09-29T04:03:49.341Z,437.83
2022-09-29T04:06:17.333Z,445.63
2022-09-29T04:08:45.253Z,485.00
2022-09-29T04:11:13.128Z,500.58
2022-09-29T04:13:41.090Z,509.42
2022-09-29T04:16:10.587Z,524.88
2022-09-29T04:18:38.656Z,530.15
2022-09-29T04:21:07.448Z,486.83
2022-09-29T04:23:35.367Z,459.38
2022-09-29T04:26:03.929Z,485.00
2022-09-29T04:28:32.721Z,446.55
2022-09-29T04:31:00.602Z,484.98
2022-09-29T04:33:31.315Z,497.38
2022-09-29T04:35:59.483Z,423.23
2022-09-29T04:38:27.766Z,405.42
2022-09-29T04:40:55.860Z,374.02
2022-09-29T04:43:23.780Z,450.00
2022-09-29T04:45:52.096Z,379.38
2022-09-29T04:48:20.288Z,358.65
2022-09-29T04:50:51.421Z,373.02
2022-09-29T04:53:19.292Z,369.00
2022-09-29T04:55:47.366Z,351.02
2022-09-29T04:58:15.544Z,383.83
2022-09-29T05:00:43.746Z,361.20
2022-09-29T05:03:12.089Z,426.30
2022-09-29T05:05:39.969Z,503.92
2022-09-29T05:08:09.394Z,517.13
2022-09-29T05:10:37.211Z,441.95
2022-09-29T05:13:05.027Z,437.35
2022-09-29T05:15:32.870Z,374.25
2022-09-29T05:18:03.466Z,347.65
2022-09-29T05:20:38.792Z,395.33
2022-09-29T05:23:11.314Z,450.77
2022-09-29T05:25:40.454Z,418.60
2022-09-29T05:28:09.492Z,400.75
2022-09-29T05:30:37.374Z,345.15
2022-09-29T05:33:05.417Z,294.92
2022-09-29T05:35:33.624Z,209.45
2022-09-29T05:38:01.769Z,188.55
2022-09-29T05:40:31.263Z,157.10
2022-09-29T05:43:00.832Z,253.43
2022-09-29T05:45:29.069Z,233.55
2022-09-29T05:47:56.907Z,238.38
2022-09-29T05:50:24.759Z,308.80
2022-09-29T05:52:53.021Z,315.20
2022-09-29T05:55:21.123Z,272.80
2022-09-29T05:57:50.639Z,216.70
2022-09-29T06:00:18.745Z,165.98
2022-09-29T06:02:46.613Z,189.60
2022-09-29T06:05:14.778Z,125.07
2022-09-29T06:07:42.677Z,160.38
2022-09-29T06:10:11.311Z,154.95
2022-09-29T06:12:39.451Z,202.07
2022-09-29T06:15:09.828Z,152.02
2022-09-29T06:17:37.829Z,145.63
2022-09-29T06:20:08.026Z,165.93
2022-09-29T06:22:35.976Z,183.65
2022-09-29T06:25:03.919Z,171.13
2022-09-29T06:27:31.828Z,167.07
2022-09-29T06:30:00.662Z,204.13
2022-09-29T06:32:30.179Z,150.98
2022-09-29T06:35:15.587Z,147.05
2022-09-29T06:37:46.730Z,215.48
2022-09-29T06:40:15.118Z,237.63
2022-09-29T06:42:43.261Z,216.60
2022-09-29T06:45:11.928Z,243.05
2022-09-29T06:47:41.457Z,305.30
2022-09-29T06:50:20.020Z,229.70
2022-09-29T06:53:00.786Z,250.05
2022-09-29T06:55:30.949Z,201.48
2022-09-29T06:58:02.914Z,219.45
2022-09-29T07:00:32.905Z,202.00
2022-09-29T07:03:02.413Z,214.60
2022-09-29T07:05:32.184Z,194.35
2022-09-29T07:08:01.285Z,198.68
2022-09-29T07:10:29.713Z,166.35
2022-09-29T07:12:57.529Z,157.82
2022-09-29T07:15:31.784Z,146.27
2022-09-29T07:18:01.069Z,106.25
2022-09-29T07:20:31.840Z,88.90
2022-09-29T07:22:59.980Z,93.07
2022-09-29T07:25:50.707Z,70.10
2022-09-29T07:28:15.704Z,88.70
2022-09-29T07:30:43.622Z,101.15
2022-09-29T07:33:11.754Z,112.97
2022-09-29T07:35:42.306Z,112.43
2022-09-29T07:38:11.279Z,100.57
2022-09-29T07:40:41.602Z,116.03
2022-09-29T07:43:10.957Z,140.77
2022-09-29T07:45:40.589Z,137.15
2022-09-29T07:48:10.010Z,110.10
2022-09-29T07:50:38.347Z,91.88
2022-09-29T07:53:09.249Z,102.00
2022-09-29T07:55:37.621Z,109.28
2022-09-29T07:58:07.182Z,130.38
2022-09-29T08:00:35.047Z,138.77
2022-09-29T08:03:03.457Z,128.18
2022-09-29T08:05:33.597Z,87.93
2022-09-29T08:08:02.137Z,92.65
2022-09-29T08:10:34.630Z,88.93
2022-09-29T08:13:03.858Z,100.13
2022-09-29T08:15:31.641Z,85.45
2022-09-29T08:18:00.851Z,58.25
2022-09-29T08:20:30.014Z,87.43
2022-09-29T08:22:59.466Z,80.15
2022-09-29T08:25:27.395Z,93.45
2022-09-29T08:27:56.618Z,68.07
2022-09-29T08:30:24.614Z,84.07
2022-09-29T08:32:53.094Z,71.38
2022-09-29T08:35:21.137Z,74.78
2022-09-29T08:37:49.109Z,67.28
2022-09-29T08:40:17.383Z,75.13
2022-09-29T08:42:51.711Z,103.72
2022-09-29T08:45:28.224Z,83.95
2022-09-29T08:47:59.262Z,115.35
2022-09-29T08:50:29.676Z,110.20
2022-09-29T08:53:00.437Z,105.30
2022-09-29T08:55:34.850Z,98.97
2022-09-29T08:58:03.318Z,80.93
2022-09-29T09:00:40.704Z,106.18
2022-09-29T09:03:22.666Z,126.40
2022-09-29T09:06:12.462Z,142.50
2022-09-29T09:08:51.214Z,122.82
2022-09-29T09:11:30.212Z,127.28
2022-09-29T09:14:07.992Z,157.52
2022-09-29T09:16:44.830Z,142.57
2022-09-29T09:19:50.045Z,141.38
2022-09-29T09:22:23.817Z,132.82
2022-09-29T09:24:58.693Z,129.68
2022-09-29T09:27:28.221Z,128.05
2022-09-29T09:30:05.045Z,96.90
2022-09-29T09:32:38.509Z,131.57
2022-09-29T09:35:26.099Z,173.93
2022-09-29T09:37:57.701Z,137.52
2022-09-29T09:40:29.784Z,162.15
2022-09-29T09:43:03.870Z,171.13
2022-09-29T09:45:35.410Z,183.30
2022-09-29T09:48:08.884Z,177.27
2022-09-29T09:50:38.236Z,209.25
2022-09-29T09:53:14.594Z,222.77
2022-09-29T09:55:43.753Z,231.70
2022-09-29T09:58:24.229Z,226.45
2022-09-29T10:00:54.447Z,214.88
2022-09-29T10:03:24.306Z,219.07
2022-09-29T10:05:52.175Z,247.65
2022-09-29T10:08:25.133Z,229.43
2022-09-29T10:10:58.718Z,213.52
2022-09-29T10:13:28.826Z,229.43
2022-09-29T10:15:59.068Z,212.88
2022-09-29T10:18:32.316Z,204.68
2022-09-29T10:21:00.276Z,198.15
2022-09-29T10:23:33.310Z,240.07
2022-09-29T10:26:03.897Z,257.42
2022-09-29T10:28:40.188Z,244.63
2022-09-29T10:31:18.961Z,237.40
2022-09-29T10:33:57.076Z,254.40
2022-09-29T10:36:27.640Z,238.82
2022-09-29T10:38:59.555Z,256.73
2022-09-29T10:41:31.788Z,215.40
2022-09-29T10:44:20.949Z,228.32
2022-09-29T10:46:51.671Z,226.95
2022-09-29T10:49:22.119Z,210.45
2022-09-29T10:51:55.459Z,248.98
2022-09-29T10:54:26.906Z,215.43
2022-09-29T10:56:55.977Z,247.82
2022-09-29T10:59:25.145Z,265.58
2022-09-29T11:01:55.194Z,259.73
2022-09-29T11:04:27.278Z,252.02
2022-09-29T11:06:55.568Z,254.13
2022-09-29T11:09:31.869Z,244.75
2022-09-29T11:12:05.068Z,235.10
2022-09-29T11:14:42.750Z,207.82
2022-09-29T11:17:24.133Z,216.45
2022-09-29T11:19:54.546Z,210.32
2022-09-29T11:22:35.028Z,177.60
2022-09-29T11:25:46.718Z,184.95
2022-09-29T11:28:50.953Z,180.85
2022-09-29T11:31:37.214Z,207.52
2022-09-29T11:34:16.415Z,210.73
2022-09-29T11:36:50.093Z,207.30
2022-09-29T11:39:30.766Z,187.02
2022-09-29T11:42:08.954Z,194.48
2022-09-29T11:44:49.353Z,200.02
2022-09-29T11:47:27.557Z,189.05
2022-09-29T11:50:08.451Z,187.57
2022-09-29T11:52:48.685Z,150.77
2022-09-29T11:55:27.117Z,147.05
2022-09-29T11:58:02.960Z,107.18
2022-09-29T12:00:44.904Z,174.50
2022-09-29T12:03:37.190Z,192.63
2022-09-29T12:06:44.325Z,171.63
2022-09-29T12:10:01.924Z,200.57
2022-09-29T12:12:33.821Z,168.60
2022-09-29T12:15:10.365Z,136.13
2022-09-29T12:17:41.223Z,122.00
2022-09-29T12:20:18.369Z,163.25
2022-09-29T12:22:50.126Z,195.48
2022-09-29T12:25:23.082Z,216.65
2022-09-29T12:27:54.001Z,216.10
2022-09-29T12:30:25.888Z,234.73
2022-09-29T12:32:58.885Z,224.57
2022-09-29T12:35:34.117Z,247.18
2022-09-29T12:38:10.443Z,200.80
2022-09-29T12:40:40.682Z,211.10
2022-09-29T12:43:15.796Z,175.45
2022-09-29T12:45:50.118Z,156.60
2022-09-29T12:48:30.428Z,210.73
2022-09-29T12:51:02.727Z,200.57
2022-09-29T12:53:34.356Z,185.32
2022-09-29T12:56:05.677Z,196.95
2022-09-29T12:58:40.903Z,211.75
2022-09-29T13:01:22.601Z,168.68
2022-09-29T13:04:28.446Z,137.38
2022-09-29T13:07:24.624Z,154.10
2022-09-29T13:10:44.349Z,180.18
2022-09-29T13:13:39.272Z,203.93
2022-09-29T13:16:16.360Z,216.73
2022-09-29T13:19:29.666Z,191.88
2022-09-29T13:22:23.880Z,306.67
2022-09-29T13:24:55.275Z,254.43
2022-09-29T13:27:31.337Z,285.15
2022-09-29T13:30:05.962Z,249.07
2022-09-29T13:32:36.125Z,247.30
2022-09-29T13:35:04.266Z,264.88
2022-09-29T13:37:44.311Z,282.00
2022-09-29T13:40:20.580Z,287.42
2022-09-29T13:42:49.156Z,320.05
2022-09-29T13:45:44.968Z,296.23
2022-09-29T13:48:38.357Z,307.50
2022-09-29T13:51:31.800Z,288.67
2022-09-29T13:54:24.405Z,305.33
2022-09-29T13:56:54.040Z,321.48
2022-09-29T13:59:24.952Z,355.63
2022-09-29T14:01:54.835Z,337.83
2022-09-29T14:04:37.674Z,330.58
2022-09-29T14:07:08.076Z,337.90
2022-09-29T14:09:37.914Z,322.42
2022-09-29T14:12:09.737Z,352.65
2022-09-29T14:14:39.676Z,300.42
2022-09-29T14:17:11.649Z,329.48
2022-09-29T14:19:51.754Z,339.52
2022-09-29T14:22:53.445Z,352.45
2022-09-29T14:25:49.127Z,395.77
2022-09-29T14:28:21.578Z,451.50
2022-09-29T14:30:51.880Z,435.75
2022-09-29T14:33:24.247Z,625.53
2022-09-29T14:36:02.439Z,616.67
2022-09-29T14:38:32.851Z,618.25
2022-09-29T14:41:04.343Z,618.08
2022-09-29T14:43:39.314Z,611.17
2022-09-29T14:46:37.212Z,615.08
2022-09-29T14:49:43.487Z,612.13
2022-09-29T14:52:21.820Z,625.30
2022-09-29T14:54:58.071Z,622.40
2022-09-29T14:57:40.067Z,614.17
2022-09-29T15:00:13.156Z,628.03
2022-09-29T15:02:44.879Z,621.97
2022-09-29T15:05:17.355Z,627.28
2022-09-29T15:07:45.172Z,628.78
2022-09-29T15:10:23.673Z,635.25
2022-09-29T15:12:52.673Z,623.83
2022-09-29T15:15:34.737Z,631.70
2022-09-29T15:18:16.588Z,624.75
2022-09-29T15:20:55.356Z,625.25
2022-09-29T15:24:00.789Z,631.92
2022-09-29T15:26:32.665Z,620.78
2022-09-29T15:29:01.385Z,623.17
2022-09-29T15:31:31.571Z,621.70
2022-09-29T15:33:59.456Z,620.50
2022-09-29T15:36:32.506Z,621.53
2022-09-29T15:39:02.358Z,621.72
2022-09-29T15:41:33.196Z,618.92
2022-09-29T15:44:02.509Z,617.05
2022-09-29T15:46:37.330Z,623.42
2022-09-29T15:49:13.213Z,616.75
2022-09-29T15:51:44.715Z,615.72
2022-09-29T15:54:14.200Z,616.47
2022-09-29T15:56:56.468Z,630.40
2022-09-29T15:59:41.591Z,617.10
2022-09-29T16:02:16.978Z,613.58
2022-09-29T16:04:45.318Z,616.15
2022-09-29T16:07:22.409Z,630.40
2022-09-29T16:09:50.698Z,619.28
2022-09-29T16:12:21.657Z,613.28
2022-09-29T16:14:50.281Z,623.22
2022-09-29T16:17:18.151Z,634.25
2022-09-29T16:19:47.826Z,621.42
2022-09-29T16:22:21.912Z,616.67
2022-09-29T16:24:55.416Z,629.35
2022-09-29T16:27:47.688Z,638.35
2022-09-29T16:30:27.332Z,623.40
2022-09-29T16:32:58.541Z,624.92
2022-09-29T16:35:41.168Z,612.70
2022-09-29T16:38:31.185Z,625.22
2022-09-29T16:40:59.332Z,621.28
2022-09-29T16:43:30.672Z,616.83
2022-09-29T16:46:01.030Z,612.38
2022-09-29T16:48:31.704Z,597.80
2022-09-29T16:51:05.721Z,598.00
2022-09-29T16:53:38.138Z,647.50
2022-09-29T16:56:10.740Z,602.95
2022-09-29T16:58:38.556Z,595.15
2022-09-29T17:01:07.691Z,607.90
2022-09-29T17:03:36.330Z,652.92
2022-09-29T17:06:05.576Z,604.08
2022-09-29T17:08:34.944Z,602.45
2022-09-29T17:11:04.441Z,602.70
2022-09-29T17:13:35.068Z,641.50
2022-09-29T17:16:03.915Z,615.20
2022-09-29T17:18:32.167Z,602.45
2022-09-29T17:21:00.153Z,601.05
2022-09-29T17:23:28.039Z,601.08
2022-09-29T17:26:16.445Z,609.17
2022-09-29T17:28:44.631Z,605.63
2022-09-29T17:31:13.687Z,607.55
2022-09-29T17:33:41.988Z,680.65
2022-09-29T17:36:14.225Z,608.92
2022-09-29T17:38:42.396Z,605.33
2022-09-29T17:41:16.214Z,609.22
2022-09-29T17:43:47.744Z,668.80
2022-09-29T17:46:16.729Z,620.83
2022-09-29T17:48:44.955Z,633.45
2022-09-29T17:51:14.857Z,621.20
2022-09-29T17:53:42.734Z,697.30
2022-09-29T17:56:19.568Z,640.25
2022-09-29T17:58:49.069Z,632.78
2022-09-29T18:01:18.338Z,612.00
2022-09-29T18:03:46.236Z,658.97
2022-09-29T18:06:19.694Z,621.33
2022-09-29T18:08:50.374Z,629.25
2022-09-29T18:11:23.326Z,621.60
2022-09-29T18:13:53.111Z,633.78
2022-09-29T18:16:23.027Z,619.50
2022-09-29T18:18:55.575Z,603.97
2022-09-29T18:21:24.883Z,597.20
2022-09-29T18:23:53.221Z,595.15
2022-09-29T18:26:21.431Z,553.75
2022-09-29T18:28:53.731Z,558.35
2022-09-29T18:31:27.840Z,556.35
2022-09-29T18:33:56.033Z,575.63
2022-09-29T18:36:24.030Z,562.13
2022-09-29T18:38:52.036Z,575.10
2022-09-29T18:41:21.629Z,584.45
2022-09-29T18:43:50.004Z,596.67
2022-09-29T18:46:18.482Z,593.75
2022-09-29T18:48:47.773Z,593.50
2022-09-29T18:51:21.094Z,591.83
2022-09-29T18:53:49.981Z,606.00
2022-09-29T18:56:18.382Z,599.67
2022-09-29T18:58:46.399Z,604.97
2022-09-29T19:01:24.619Z,596.90
2022-09-29T19:03:54.057Z,603.22
2022-09-29T19:06:22.190Z,600.90
2022-09-29T19:08:52.085Z,608.70
2022-09-29T19:11:22.205Z,606.90
2022-09-29T19:13:52.354Z,606.95
2022-09-29T19:16:20.176Z,603.08
2022-09-29T19:18:50.230Z,588.20
2022-09-29T19:21:19.486Z,604.58
2022-09-29T19:23:47.861Z,581.10
2022-09-29T19:26:19.222Z,535.00
2022-09-29T19:28:48.186Z,503.65
2022-09-29T19:31:20.441Z,470.10
2022-09-29T19:33:48.929Z,451.38
2022-09-29T19:36:20.203Z,442.67
2022-09-29T19:38:48.785Z,398.52
2022-09-29T19:41:18.749Z,392.33
2022-09-29T19:43:47.548Z,443.38
2022-09-29T19:46:16.410Z,437.05
2022-09-29T19:48:44.861Z,509.13
2022-09-29T19:51:28.870Z,563.88
2022-09-29T19:54:11.437Z,568.85
2022-09-29T19:56:40.426Z,534.78
2022-09-29T19:59:10.388Z,570.03
2022-09-29T20:01:38.766Z,515.55
2022-09-29T20:04:06.773Z,510.50
2022-09-29T20:06:36.034Z,504.98
2022-09-29T20:09:06.051Z,522.03
2022-09-29T20:11:35.040Z,520.20
2022-09-29T20:14:03.384Z,529.08
2022-09-29T20:16:33.527Z,509.15
2022-09-29T20:19:01.372Z,532.05
2022-09-29T20:21:29.272Z,547.65
2022-09-29T20:23:57.939Z,594.63
2022-09-29T20:26:27.677Z,600.97
2022-09-29T20:28:55.472Z,607.25
2022-09-29T20:31:24.260Z,614.85
2022-09-29T20:33:52.760Z,610.78
2022-09-29T20:36:20.943Z,613.72
2022-09-29T20:38:48.782Z,608.15
2022-09-29T20:41:17.106Z,607.17
2022-09-29T20:43:51.246Z,601.92
2022-09-29T20:46:19.158Z,596.95
2022-09-29T20:48:48.669Z,586.03
2022-09-29T20:51:16.593Z,591.83
2022-09-29T20:53:46.411Z,607.50
2022-09-29T20:56:16.359Z,607.88
2022-09-29T20:58:45.262Z,596.85
2022-09-29T21:01:18.094Z,590.17
2022-09-29T21:03:50.063Z,592.47
2022-09-29T21:06:18.653Z,593.90
2022-09-29T21:08:46.497Z,600.25
2022-09-29T21:11:14.465Z,588.22
2022-09-29T21:13:42.754Z,596.85
2022-09-29T21:16:10.945Z,603.13
2022-09-29T21:18:40.468Z,592.72
2022-09-29T21:21:09.994Z,583.05
2022-09-29T21:23:40.052Z,558.47
2022-09-29T21:26:12.176Z,578.65
2022-09-29T21:28:40.073Z,578.78
2022-09-29T21:31:09.853Z,573.65
2022-09-29T21:33:38.229Z,548.65
2022-09-29T21:36:09.751Z,499.23
2022-09-29T21:38:39.668Z,520.22
2022-09-29T21:41:09.359Z,471.77
2022-09-29T21:43:38.589Z,438.00
2022-09-29T21:46:08.923Z,427.02
2022-09-29T21:48:36.931Z,423.77
2022-09-29T21:51:08.088Z,399.50
2022-09-29T21:53:38.568Z,378.17
2022-09-29T21:56:08.206Z,397.33
2022-09-29T21:58:36.363Z,366.13
2022-09-29T22:01:09.095Z,313.90
2022-09-29T22:03:41.139Z,324.02
2022-09-29T22:06:14.573Z,327.83
2022-09-29T22:08:43.397Z,304.33
2022-09-29T22:11:13.185Z,314.23
2022-09-29T22:13:42.640Z,358.40
2022-09-29T22:16:12.179Z,391.73
2022-09-29T22:18:42.146Z,445.27
2022-09-29T22:21:13.147Z,464.58
2022-09-29T22:23:41.224Z,450.08
2022-09-29T22:26:12.401Z,417.50
2022-09-29T22:28:40.426Z,401.05
2022-09-29T22:31:10.114Z,423.50
2022-09-29T22:33:38.863Z,401.20
2022-09-29T22:36:07.423Z,416.98
2022-09-29T22:38:37.835Z,442.60
2022-09-29T22:41:09.489Z,454.50
2022-09-29T22:43:37.652Z,470.48
2022-09-29T22:46:06.754Z,448.25
2022-09-29T22:48:34.640Z,487.70
2022-09-29T22:51:03.182Z,462.23
2022-09-29T22:53:31.132Z,390.23
2022-09-29T22:56:01.386Z,424.27
2022-09-29T22:58:29.357Z,405.08
2022-09-29T23:01:04.612Z,388.65
2022-09-29T23:03:32.473Z,410.83
2022-09-29T23:06:00.466Z,435.33
2022-09-29T23:08:30.492Z,454.13
2022-09-29T23:10:58.861Z,405.90
2022-09-29T23:13:28.255Z,384.83
2022-09-29T23:15:56.047Z,377.17
2022-09-29T23:18:23.997Z,382.83
2022-09-29T23:20:51.796Z,387.25
2022-09-29T23:23:19.640Z,383.95
2022-09-29T23:25:50.614Z,396.63
2022-09-29T23:28:18.889Z,401.77
2022-09-29T23:30:48.170Z,382.75
2022-09-29T23:33:16.087Z,403.15
2022-09-29T23:35:43.974Z,365.40
2022-09-29T23:38:31.794Z,388.92
2022-09-29T23:41:00.900Z,375.23
2022-09-29T23:43:28.862Z,359.20
2022-09-29T23:45:58.430Z,327.85
2022-09-29T23:48:26.321Z,329.08
2022-09-29T23:50:54.317Z,299.85
2022-09-29T23:53:22.449Z,316.48
2022-09-29T23:55:50.566Z,306.83
2022-09-29T23:58:18.482Z,305.98
